sensor_id;sensor_type;location;lat;lon;timestamp;temperature;humidity
7046;DHT22;3564;53.326;10.356;2024-03-22T00:01:53;12.40;99.90
7046;DHT22;3564;53.326;10.356;2024-03-22T00:04:19;12.40;99.90
7046;DHT22;3564;53.326;10.356;2024-03-22T00:06:47;12.40;99.90
7046;DHT22;3564;53.326;10.356;2024-03-22T00:09:13;12.50;99.90
7046;DHT22;3564;53.326;10.356;2024-03-22T00:11:42;12.40;99.90
7046;DHT22;3564;53.326;10.356;2024-03-22T00:14:08;12.50;99.90
7046;DHT22;3564;53.326;10.356;2024-03-22T00:16:34;12.50;99.90
7046;DHT22;3564;53.326;10.356;2024-03-22T00:19:00;12.50;99.90
7046;DHT22;3564;53.326;10.356;2024-03-22T00:21:26;12.40;99.90
7046;DHT22;3564;53.326;10.356;2024-03-22T00:23:52;12.50;99.90
7046;DHT22;3564;53.326;10.356;2024-03-22T00:26:17;12.50;99.90
7046;DHT22;3564;53.326;10.356;2024-03-22T00:28:43;12.50;99.90
7046;DHT22;3564;53.326;10.356;2024-03-22T00:31:09;12.50;99.90
7046;DHT22;3564;53.326;10.356;2024-03-22T00:33:35;12.40;99.90
7046;DHT22;3564;53.326;10.356;2024-03-22T00:36:00;12.50;99.90
7046;DHT22;3564;53.326;10.356;2024-03-22T00:38:26;12.50;99.90
7046;DHT22;3564;53.326;10.356;2024-03-22T00:40:52;12.50;99.90
7046;DHT22;3564;53.326;10.356;2024-03-22T00:43:17;12.50;99.90
7046;DHT22;3564;53.326;10.356;2024-03-22T00:45:43;12.50;99.90
7046;DHT22;3564;53.326;10.356;2024-03-22T00:48:08;12.50;99.90
7046;DHT22;3564;53.326;10.356;2024-03-22T00:50:34;12.40;99.90
7046;DHT22;3564;53.326;10.356;2024-03-22T00:52:59;12.40;99.90
7046;DHT22;3564;53.326;10.356;2024-03-22T00:55:28;12.40;99.90
7046;DHT22;3564;53.326;10.356;2024-03-22T00:57:53;12.40;99.90
7046;DHT22;3564;53.326;10.356;2024-03-22T01:00:19;12.40;99.90
7046;DHT22;3564;53.326;10.356;2024-03-22T01:02:44;12.40;99.90
7046;DHT22;3564;53.326;10.356;2024-03-22T01:05:10;12.40;99.90
7046;DHT22;3564;53.326;10.356;2024-03-22T01:07:37;12.40;99.90
7046;DHT22;3564;53.326;10.356;2024-03-22T01:10:03;12.50;99.90
7046;DHT22;3564;53.326;10.356;2024-03-22T01:12:38;12.50;99.90
7046;DHT22;3564;53.326;10.356;2024-03-22T01:15:05;12.40;99.90
7046;DHT22;3564;53.326;10.356;2024-03-22T01:17:31;12.40;99.90
7046;DHT22;3564;53.326;10.356;2024-03-22T01:19:56;12.40;99.90
7046;DHT22;3564;53.326;10.356;2024-03-22T01:22:22;12.40;99.90
7046;DHT22;3564;53.326;10.356;2024-03-22T01:24:48;12.40;99.90
7046;DHT22;3564;53.326;10.356;2024-03-22T01:27:14;12.40;99.90
7046;DHT22;3564;53.326;10.356;2024-03-22T01:29:40;12.40;99.90
7046;DHT22;3564;53.326;10.356;2024-03-22T01:32:05;12.40;99.90
7046;DHT22;3564;53.326;10.356;2024-03-22T01:34:31;12.40;99.90
7046;DHT22;3564;53.326;10.356;2024-03-22T01:36:57;12.30;99.90
7046;DHT22;3564;53.326;10.356;2024-03-22T01:39:23;12.40;99.90
7046;DHT22;3564;53.326;10.356;2024-03-22T01:41:49;12.40;99.90
7046;DHT22;3564;53.326;10.356;2024-03-22T01:44:15;12.40;99.90
7046;DHT22;3564;53.326;10.356;2024-03-22T01:46:41;12.40;99.90
7046;DHT22;3564;53.326;10.356;2024-03-22T01:49:09;12.40;99.90
7046;DHT22;3564;53.326;10.356;2024-03-22T01:51:34;12.40;99.90
7046;DHT22;3564;53.326;10.356;2024-03-22T01:54:02;12.40;99.90
7046;DHT22;3564;53.326;10.356;2024-03-22T01:56:29;12.40;99.90
7046;DHT22;3564;53.326;10.356;2024-03-22T01:58:55;12.40;99.90
7046;DHT22;3564;53.326;10.356;2024-03-22T02:01:21;12.40;99.90
7046;DHT22;3564;53.326;10.356;2024-03-22T02:03:47;12.40;99.90
7046;DHT22;3564;53.326;10.356;2024-03-22T02:06:12;12.40;99.90
7046;DHT22;3564;53.326;10.356;2024-03-22T02:08:38;12.40;99.90
7046;DHT22;3564;53.326;10.356;2024-03-22T02:11:05;12.40;99.90
7046;DHT22;3564;53.326;10.356;2024-03-22T02:13:31;12.40;99.90
7046;DHT22;3564;53.326;10.356;2024-03-22T02:15:57;12.30;99.90
7046;DHT22;3564;53.326;10.356;2024-03-22T02:18:23;12.30;99.90
7046;DHT22;3564;53.326;10.356;2024-03-22T02:20:48;12.30;99.90
7046;DHT22;3564;53.326;10.356;2024-03-22T02:23:15;12.30;99.90
7046;DHT22;3564;53.326;10.356;2024-03-22T02:25:41;12.30;99.90
7046;DHT22;3564;53.326;10.356;2024-03-22T02:28:06;12.30;99.90
7046;DHT22;3564;53.326;10.356;2024-03-22T02:30:32;12.30;99.90
7046;DHT22;3564;53.326;10.356;2024-03-22T02:32:57;12.30;99.90
7046;DHT22;3564;53.326;10.356;2024-03-22T02:35:23;12.30;99.90
7046;DHT22;3564;53.326;10.356;2024-03-22T02:37:48;12.30;99.90
7046;DHT22;3564;53.326;10.356;2024-03-22T02:40:14;12.30;99.90
7046;DHT22;3564;53.326;10.356;2024-03-22T02:42:40;12.30;99.90
7046;DHT22;3564;53.326;10.356;2024-03-22T02:45:05;12.30;99.90
7046;DHT22;3564;53.326;10.356;2024-03-22T02:47:32;12.20;99.90
7046;DHT22;3564;53.326;10.356;2024-03-22T02:49:57;12.30;99.90
7046;DHT22;3564;53.326;10.356;2024-03-22T02:52:23;12.30;99.90
7046;DHT22;3564;53.326;10.356;2024-03-22T02:54:48;12.30;99.90
7046;DHT22;3564;53.326;10.356;2024-03-22T02:57:14;12.30;99.90
7046;DHT22;3564;53.326;10.356;2024-03-22T02:59:39;12.30;99.90
7046;DHT22;3564;53.326;10.356;2024-03-22T03:02:05;12.30;99.90
7046;DHT22;3564;53.326;10.356;2024-03-22T03:04:32;12.20;99.90
7046;DHT22;3564;53.326;10.356;2024-03-22T03:06:57;12.20;99.90
7046;DHT22;3564;53.326;10.356;2024-03-22T03:09:23;12.20;99.90
7046;DHT22;3564;53.326;10.356;2024-03-22T03:11:49;12.30;99.90
7046;DHT22;3564;53.326;10.356;2024-03-22T03:14:14;12.30;99.90
7046;DHT22;3564;53.326;10.356;2024-03-22T03:16:40;12.30;99.90
7046;DHT22;3564;53.326;10.356;2024-03-22T03:19:05;12.40;99.90
7046;DHT22;3564;53.326;10.356;2024-03-22T03:21:31;12.40;99.90
7046;DHT22;3564;53.326;10.356;2024-03-22T03:23:56;12.40;99.90
7046;DHT22;3564;53.326;10.356;2024-03-22T03:26:22;12.50;99.90
7046;DHT22;3564;53.326;10.356;2024-03-22T03:28:47;12.50;99.90
7046;DHT22;3564;53.326;10.356;2024-03-22T03:31:13;12.50;99.90
7046;DHT22;3564;53.326;10.356;2024-03-22T03:33:38;12.50;99.90
7046;DHT22;3564;53.326;10.356;2024-03-22T03:36:08;12.50;99.90
7046;DHT22;3564;53.326;10.356;2024-03-22T03:38:34;12.60;99.90
7046;DHT22;3564;53.326;10.356;2024-03-22T03:41:03;12.60;99.90
7046;DHT22;3564;53.326;10.356;2024-03-22T03:43:28;12.60;99.90
7046;DHT22;3564;53.326;10.356;2024-03-22T03:45:55;12.60;99.90
7046;DHT22;3564;53.326;10.356;2024-03-22T03:48:20;12.60;99.90
7046;DHT22;3564;53.326;10.356;2024-03-22T03:50:53;12.60;99.90
7046;DHT22;3564;53.326;10.356;2024-03-22T03:53:21;12.60;99.90
7046;DHT22;3564;53.326;10.356;2024-03-22T03:55:46;12.60;99.90
7046;DHT22;3564;53.326;10.356;2024-03-22T03:58:12;12.50;99.90
7046;DHT22;3564;53.326;10.356;2024-03-22T04:00:39;12.50;99.90
7046;DHT22;3564;53.326;10.356;2024-03-22T04:03:05;12.50;99.90
7046;DHT22;3564;53.326;10.356;2024-03-22T04:05:30;12.50;99.90
7046;DHT22;3564;53.326;10.356;2024-03-22T04:07:57;12.60;99.90
7046;DHT22;3564;53.326;10.356;2024-03-22T04:10:24;12.50;99.90
7046;DHT22;3564;53.326;10.356;2024-03-22T04:12:50;12.60;99.90
7046;DHT22;3564;53.326;10.356;2024-03-22T04:15:15;12.60;99.90
7046;DHT22;3564;53.326;10.356;2024-03-22T04:17:41;12.60;99.90
7046;DHT22;3564;53.326;10.356;2024-03-22T04:20:07;12.60;99.90
7046;DHT22;3564;53.326;10.356;2024-03-22T04:22:34;12.60;99.90
7046;DHT22;3564;53.326;10.356;2024-03-22T04:25:00;12.60;99.90
7046;DHT22;3564;53.326;10.356;2024-03-22T04:27:25;12.60;99.90
7046;DHT22;3564;53.326;10.356;2024-03-22T04:29:51;12.60;99.90
7046;DHT22;3564;53.326;10.356;2024-03-22T04:32:18;12.60;99.90
7046;DHT22;3564;53.326;10.356;2024-03-22T04:34:43;12.60;99.90
7046;DHT22;3564;53.326;10.356;2024-03-22T04:37:12;12.60;99.90
7046;DHT22;3564;53.326;10.356;2024-03-22T04:39:38;12.60;99.90
7046;DHT22;3564;53.326;10.356;2024-03-22T04:42:04;12.70;99.90
7046;DHT22;3564;53.326;10.356;2024-03-22T04:44:29;12.70;99.90
7046;DHT22;3564;53.326;10.356;2024-03-22T04:46:55;12.70;99.90
7046;DHT22;3564;53.326;10.356;2024-03-22T04:49:21;12.70;99.90
7046;DHT22;3564;53.326;10.356;2024-03-22T04:51:47;12.70;99.90
7046;DHT22;3564;53.326;10.356;2024-03-22T04:54:12;12.70;99.90
7046;DHT22;3564;53.326;10.356;2024-03-22T04:56:39;12.70;99.90
7046;DHT22;3564;53.326;10.356;2024-03-22T04:59:05;12.80;99.90
7046;DHT22;3564;53.326;10.356;2024-03-22T05:01:30;12.80;99.90
7046;DHT22;3564;53.326;10.356;2024-03-22T05:03:56;12.80;99.90
7046;DHT22;3564;53.326;10.356;2024-03-22T05:06:21;12.80;99.90
7046;DHT22;3564;53.326;10.356;2024-03-22T05:08:47;12.80;99.90
7046;DHT22;3564;53.326;10.356;2024-03-22T05:11:13;12.80;99.90
7046;DHT22;3564;53.326;10.356;2024-03-22T05:13:38;12.80;99.90
7046;DHT22;3564;53.326;10.356;2024-03-22T05:16:07;12.90;99.90
7046;DHT22;3564;53.326;10.356;2024-03-22T05:18:33;12.80;99.90
7046;DHT22;3564;53.326;10.356;2024-03-22T05:20:58;12.80;99.90
7046;DHT22;3564;53.326;10.356;2024-03-22T05:23:24;12.80;99.90
7046;DHT22;3564;53.326;10.356;2024-03-22T05:25:49;12.80;99.90
7046;DHT22;3564;53.326;10.356;2024-03-22T05:28:15;12.90;99.90
7046;DHT22;3564;53.326;10.356;2024-03-22T05:30:41;12.90;99.90
7046;DHT22;3564;53.326;10.356;2024-03-22T05:33:06;12.80;99.90
7046;DHT22;3564;53.326;10.356;2024-03-22T05:35:32;12.90;99.90
7046;DHT22;3564;53.326;10.356;2024-03-22T05:37:58;12.80;99.90
7046;DHT22;3564;53.326;10.356;2024-03-22T05:40:26;12.90;99.90
7046;DHT22;3564;53.326;10.356;2024-03-22T05:42:52;12.90;99.90
7046;DHT22;3564;53.326;10.356;2024-03-22T05:45:17;12.90;99.90
7046;DHT22;3564;53.326;10.356;2024-03-22T05:47:43;12.90;99.90
7046;DHT22;3564;53.326;10.356;2024-03-22T05:50:09;12.90;99.90
7046;DHT22;3564;53.326;10.356;2024-03-22T05:52:34;12.90;99.90
7046;DHT22;3564;53.326;10.356;2024-03-22T05:55:00;12.90;99.90
7046;DHT22;3564;53.326;10.356;2024-03-22T05:57:25;12.90;99.90
7046;DHT22;3564;53.326;10.356;2024-03-22T05:59:51;13.00;99.90
7046;DHT22;3564;53.326;10.356;2024-03-22T06:02:18;13.00;99.90
7046;DHT22;3564;53.326;10.356;2024-03-22T06:04:44;13.00;99.90
7046;DHT22;3564;53.326;10.356;2024-03-22T06:07:10;13.00;99.90
7046;DHT22;3564;53.326;10.356;2024-03-22T06:09:36;13.00;99.90
7046;DHT22;3564;53.326;10.356;2024-03-22T06:12:18;13.00;99.90
7046;DHT22;3564;53.326;10.356;2024-03-22T06:14:44;13.00;99.90
7046;DHT22;3564;53.326;10.356;2024-03-22T06:17:10;13.00;99.90
7046;DHT22;3564;53.326;10.356;2024-03-22T06:19:37;13.10;99.90
7046;DHT22;3564;53.326;10.356;2024-03-22T06:22:03;13.10;99.90
7046;DHT22;3564;53.326;10.356;2024-03-22T06:24:29;13.10;99.90
7046;DHT22;3564;53.326;10.356;2024-03-22T06:26:55;13.10;99.90
7046;DHT22;3564;53.326;10.356;2024-03-22T06:29:20;13.10;99.90
7046;DHT22;3564;53.326;10.356;2024-03-22T06:31:46;13.10;99.90
7046;DHT22;3564;53.326;10.356;2024-03-22T06:34:12;13.10;99.90
7046;DHT22;3564;53.326;10.356;2024-03-22T06:36:38;13.10;99.90
7046;DHT22;3564;53.326;10.356;2024-03-22T06:39:03;13.20;99.90
7046;DHT22;3564;53.326;10.356;2024-03-22T06:41:32;13.20;99.90
7046;DHT22;3564;53.326;10.356;2024-03-22T06:43:58;13.20;99.90
7046;DHT22;3564;53.326;10.356;2024-03-22T06:46:24;13.30;99.90
7046;DHT22;3564;53.326;10.356;2024-03-22T06:48:50;13.30;99.90
7046;DHT22;3564;53.326;10.356;2024-03-22T06:51:16;13.30;99.90
7046;DHT22;3564;53.326;10.356;2024-03-22T06:53:41;13.30;99.90
7046;DHT22;3564;53.326;10.356;2024-03-22T06:56:07;13.30;99.90
7046;DHT22;3564;53.326;10.356;2024-03-22T06:58:40;13.30;99.90
7046;DHT22;3564;53.326;10.356;2024-03-22T07:01:06;13.30;99.90
7046;DHT22;3564;53.326;10.356;2024-03-22T07:03:32;13.40;99.90
7046;DHT22;3564;53.326;10.356;2024-03-22T07:05:57;13.40;99.90
7046;DHT22;3564;53.326;10.356;2024-03-22T07:08:24;13.40;99.90
7046;DHT22;3564;53.326;10.356;2024-03-22T07:10:50;13.40;99.90
7046;DHT22;3564;53.326;10.356;2024-03-22T07:13:18;13.40;99.90
7046;DHT22;3564;53.326;10.356;2024-03-22T07:15:44;13.50;99.90
7046;DHT22;3564;53.326;10.356;2024-03-22T07:18:13;13.50;99.90
7046;DHT22;3564;53.326;10.356;2024-03-22T07:20:39;13.50;99.90
7046;DHT22;3564;53.326;10.356;2024-03-22T07:23:05;13.50;99.90
7046;DHT22;3564;53.326;10.356;2024-03-22T07:25:30;13.60;99.90
7046;DHT22;3564;53.326;10.356;2024-03-22T07:27:57;13.50;99.90
7046;DHT22;3564;53.326;10.356;2024-03-22T07:30:22;13.60;99.90
7046;DHT22;3564;53.326;10.356;2024-03-22T07:32:48;13.60;99.90
7046;DHT22;3564;53.326;10.356;2024-03-22T07:35:14;13.60;99.90
7046;DHT22;3564;53.326;10.356;2024-03-22T07:37:39;13.70;99.90
7046;DHT22;3564;53.326;10.356;2024-03-22T07:40:05;13.70;99.90
7046;DHT22;3564;53.326;10.356;2024-03-22T07:42:32;13.70;99.90
7046;DHT22;3564;53.326;10.356;2024-03-22T07:44:58;13.70;99.90
7046;DHT22;3564;53.326;10.356;2024-03-22T07:47:23;13.70;99.90
7046;DHT22;3564;53.326;10.356;2024-03-22T07:49:50;13.80;99.90
7046;DHT22;3564;53.326;10.356;2024-03-22T07:52:16;13.80;99.90
7046;DHT22;3564;53.326;10.356;2024-03-22T07:54:43;13.80;99.90
7046;DHT22;3564;53.326;10.356;2024-03-22T07:57:08;13.80;99.90
7046;DHT22;3564;53.326;10.356;2024-03-22T07:59:36;13.80;99.90
7046;DHT22;3564;53.326;10.356;2024-03-22T08:02:02;13.80;99.90
7046;DHT22;3564;53.326;10.356;2024-03-22T08:04:28;13.80;99.90
7046;DHT22;3564;53.326;10.356;2024-03-22T08:06:54;13.80;99.90
7046;DHT22;3564;53.326;10.356;2024-03-22T08:09:19;13.80;99.90
7046;DHT22;3564;53.326;10.356;2024-03-22T08:11:45;13.80;99.90
7046;DHT22;3564;53.326;10.356;2024-03-22T08:14:11;13.80;99.90
7046;DHT22;3564;53.326;10.356;2024-03-22T08:16:36;13.80;99.90
7046;DHT22;3564;53.326;10.356;2024-03-22T08:19:02;13.80;99.90
7046;DHT22;3564;53.326;10.356;2024-03-22T08:21:27;13.80;99.90
7046;DHT22;3564;53.326;10.356;2024-03-22T08:23:53;13.80;99.90
7046;DHT22;3564;53.326;10.356;2024-03-22T08:26:19;13.80;99.90
7046;DHT22;3564;53.326;10.356;2024-03-22T08:28:49;13.80;99.90
7046;DHT22;3564;53.326;10.356;2024-03-22T08:31:15;13.90;99.90
7046;DHT22;3564;53.326;10.356;2024-03-22T08:33:40;13.90;99.90
7046;DHT22;3564;53.326;10.356;2024-03-22T08:36:06;13.90;99.90
7046;DHT22;3564;53.326;10.356;2024-03-22T08:38:32;13.90;99.90
7046;DHT22;3564;53.326;10.356;2024-03-22T08:40:57;13.90;99.90
7046;DHT22;3564;53.326;10.356;2024-03-22T08:43:23;13.90;99.90
7046;DHT22;3564;53.326;10.356;2024-03-22T08:45:51;14.00;99.90
7046;DHT22;3564;53.326;10.356;2024-03-22T08:48:17;13.90;99.90
7046;DHT22;3564;53.326;10.356;2024-03-22T08:50:43;13.90;99.90
7046;DHT22;3564;53.326;10.356;2024-03-22T08:53:09;13.90;99.90
7046;DHT22;3564;53.326;10.356;2024-03-22T08:55:36;13.90;99.90
7046;DHT22;3564;53.326;10.356;2024-03-22T08:58:03;13.90;99.90
7046;DHT22;3564;53.326;10.356;2024-03-22T09:00:29;13.90;99.90
7046;DHT22;3564;53.326;10.356;2024-03-22T09:02:54;13.90;99.90
7046;DHT22;3564;53.326;10.356;2024-03-22T09:05:20;13.90;99.90
7046;DHT22;3564;53.326;10.356;2024-03-22T09:07:45;14.00;99.90
7046;DHT22;3564;53.326;10.356;2024-03-22T09:10:11;14.00;99.90
7046;DHT22;3564;53.326;10.356;2024-03-22T09:12:37;14.00;99.90
7046;DHT22;3564;53.326;10.356;2024-03-22T09:15:02;14.00;99.90
7046;DHT22;3564;53.326;10.356;2024-03-22T09:17:28;14.00;99.90
7046;DHT22;3564;53.326;10.356;2024-03-22T09:19:54;14.00;99.90
7046;DHT22;3564;53.326;10.356;2024-03-22T09:22:20;14.00;99.90
7046;DHT22;3564;53.326;10.356;2024-03-22T09:24:45;14.00;99.90
7046;DHT22;3564;53.326;10.356;2024-03-22T09:27:11;14.00;99.90
7046;DHT22;3564;53.326;10.356;2024-03-22T09:29:37;14.00;99.90
7046;DHT22;3564;53.326;10.356;2024-03-22T09:32:03;14.00;99.90
7046;DHT22;3564;53.326;10.356;2024-03-22T09:34:29;14.00;99.90
7046;DHT22;3564;53.326;10.356;2024-03-22T09:36:56;14.00;99.90
7046;DHT22;3564;53.326;10.356;2024-03-22T09:39:24;14.00;99.90
7046;DHT22;3564;53.326;10.356;2024-03-22T09:41:52;14.00;99.90
7046;DHT22;3564;53.326;10.356;2024-03-22T09:44:19;14.00;99.90
7046;DHT22;3564;53.326;10.356;2024-03-22T09:46:46;14.00;99.90
7046;DHT22;3564;53.326;10.356;2024-03-22T09:49:13;14.00;99.90
7046;DHT22;3564;53.326;10.356;2024-03-22T09:51:39;14.00;99.90
7046;DHT22;3564;53.326;10.356;2024-03-22T09:54:07;14.00;99.90
7046;DHT22;3564;53.326;10.356;2024-03-22T09:56:40;14.00;99.90
7046;DHT22;3564;53.326;10.356;2024-03-22T09:59:07;14.00;99.90
7046;DHT22;3564;53.326;10.356;2024-03-22T10:01:37;14.10;99.90
7046;DHT22;3564;53.326;10.356;2024-03-22T10:04:05;14.00;99.90
7046;DHT22;3564;53.326;10.356;2024-03-22T10:06:30;14.00;99.90
7046;DHT22;3564;53.326;10.356;2024-03-22T10:09:00;14.00;99.90
7046;DHT22;3564;53.326;10.356;2024-03-22T10:11:28;14.00;99.90
7046;DHT22;3564;53.326;10.356;2024-03-22T10:13:54;14.00;99.90
7046;DHT22;3564;53.326;10.356;2024-03-22T10:16:21;14.00;99.90
7046;DHT22;3564;53.326;10.356;2024-03-22T10:18:48;14.00;99.90
7046;DHT22;3564;53.326;10.356;2024-03-22T10:21:18;14.00;99.90
7046;DHT22;3564;53.326;10.356;2024-03-22T10:23:44;14.00;99.90
7046;DHT22;3564;53.326;10.356;2024-03-22T10:26:12;14.00;99.90
7046;DHT22;3564;53.326;10.356;2024-03-22T10:28:44;14.00;99.90
7046;DHT22;3564;53.326;10.356;2024-03-22T10:31:12;14.00;99.90
7046;DHT22;3564;53.326;10.356;2024-03-22T10:33:38;14.00;99.90
7046;DHT22;3564;53.326;10.356;2024-03-22T10:36:06;14.00;99.90
7046;DHT22;3564;53.326;10.356;2024-03-22T10:38:36;14.10;99.90
7046;DHT22;3564;53.326;10.356;2024-03-22T10:41:03;14.10;99.90
7046;DHT22;3564;53.326;10.356;2024-03-22T10:43:30;14.10;99.90
7046;DHT22;3564;53.326;10.356;2024-03-22T10:46:01;14.10;99.90
7046;DHT22;3564;53.326;10.356;2024-03-22T10:48:30;14.00;99.90
7046;DHT22;3564;53.326;10.356;2024-03-22T10:51:00;14.10;99.90
7046;DHT22;3564;53.326;10.356;2024-03-22T10:53:30;14.10;99.90
7046;DHT22;3564;53.326;10.356;2024-03-22T10:55:58;14.10;99.90
7046;DHT22;3564;53.326;10.356;2024-03-22T10:58:26;14.10;99.90
7046;DHT22;3564;53.326;10.356;2024-03-22T11:00:52;14.10;99.90
7046;DHT22;3564;53.326;10.356;2024-03-22T11:03:23;14.10;99.90
7046;DHT22;3564;53.326;10.356;2024-03-22T11:05:56;14.10;99.90
7046;DHT22;3564;53.326;10.356;2024-03-22T11:08:29;14.20;99.90
7046;DHT22;3564;53.326;10.356;2024-03-22T11:11:08;14.20;99.90
7046;DHT22;3564;53.326;10.356;2024-03-22T11:13:36;14.20;99.90
7046;DHT22;3564;53.326;10.356;2024-03-22T11:16:02;14.20;99.90
7046;DHT22;3564;53.326;10.356;2024-03-22T11:18:28;14.20;99.90
7046;DHT22;3564;53.326;10.356;2024-03-22T11:20:54;14.20;99.90
7046;DHT22;3564;53.326;10.356;2024-03-22T11:23:19;14.20;99.90
7046;DHT22;3564;53.326;10.356;2024-03-22T11:25:45;14.20;99.90
7046;DHT22;3564;53.326;10.356;2024-03-22T11:28:11;14.20;99.90
7046;DHT22;3564;53.326;10.356;2024-03-22T11:30:38;14.20;99.90
7046;DHT22;3564;53.326;10.356;2024-03-22T11:33:04;14.10;99.90
7046;DHT22;3564;53.326;10.356;2024-03-22T11:35:31;14.10;99.90
7046;DHT22;3564;53.326;10.356;2024-03-22T11:37:57;14.10;99.90
7046;DHT22;3564;53.326;10.356;2024-03-22T11:40:25;14.10;99.90
7046;DHT22;3564;53.326;10.356;2024-03-22T11:42:54;14.10;99.90
7046;DHT22;3564;53.326;10.356;2024-03-22T11:45:21;14.10;99.90
7046;DHT22;3564;53.326;10.356;2024-03-22T11:47:48;14.10;99.90
7046;DHT22;3564;53.326;10.356;2024-03-22T11:50:14;14.00;99.90
7046;DHT22;3564;53.326;10.356;2024-03-22T11:52:41;14.10;99.90
7046;DHT22;3564;53.326;10.356;2024-03-22T11:55:07;14.10;99.90
7046;DHT22;3564;53.326;10.356;2024-03-22T11:57:33;14.10;99.90
7046;DHT22;3564;53.326;10.356;2024-03-22T11:59:59;14.10;99.90
7046;DHT22;3564;53.326;10.356;2024-03-22T12:02:25;14.10;99.90
7046;DHT22;3564;53.326;10.356;2024-03-22T12:04:51;14.10;99.90
7046;DHT22;3564;53.326;10.356;2024-03-22T12:07:21;14.10;99.90
7046;DHT22;3564;53.326;10.356;2024-03-22T12:09:46;14.10;99.90
7046;DHT22;3564;53.326;10.356;2024-03-22T12:12:12;14.20;99.90
7046;DHT22;3564;53.326;10.356;2024-03-22T12:14:39;14.10;99.90
7046;DHT22;3564;53.326;10.356;2024-03-22T12:17:08;14.20;99.90
7046;DHT22;3564;53.326;10.356;2024-03-22T12:19:34;14.20;99.90
7046;DHT22;3564;53.326;10.356;2024-03-22T12:22:00;14.30;99.90
7046;DHT22;3564;53.326;10.356;2024-03-22T12:24:26;14.30;99.90
7046;DHT22;3564;53.326;10.356;2024-03-22T12:26:53;14.30;99.90
7046;DHT22;3564;53.326;10.356;2024-03-22T12:29:19;14.30;99.90
7046;DHT22;3564;53.326;10.356;2024-03-22T12:31:46;14.40;99.90
7046;DHT22;3564;53.326;10.356;2024-03-22T12:34:12;14.40;99.90
7046;DHT22;3564;53.326;10.356;2024-03-22T12:36:38;14.30;99.90
7046;DHT22;3564;53.326;10.356;2024-03-22T12:39:04;14.40;99.90
7046;DHT22;3564;53.326;10.356;2024-03-22T12:41:30;14.40;99.90
7046;DHT22;3564;53.326;10.356;2024-03-22T12:43:56;14.40;99.90
7046;DHT22;3564;53.326;10.356;2024-03-22T12:46:22;14.40;99.90
7046;DHT22;3564;53.326;10.356;2024-03-22T12:48:47;14.50;99.90
7046;DHT22;3564;53.326;10.356;2024-03-22T12:51:13;14.50;99.90
7046;DHT22;3564;53.326;10.356;2024-03-22T12:53:40;14.60;99.90
7046;DHT22;3564;53.326;10.356;2024-03-22T12:56:05;14.60;99.90
7046;DHT22;3564;53.326;10.356;2024-03-22T12:58:32;14.60;99.90
7046;DHT22;3564;53.326;10.356;2024-03-22T13:00:58;14.60;99.90
7046;DHT22;3564;53.326;10.356;2024-03-22T13:03:26;14.60;99.90
7046;DHT22;3564;53.326;10.356;2024-03-22T13:05:52;14.60;99.90
7046;DHT22;3564;53.326;10.356;2024-03-22T13:08:17;14.60;99.90
7046;DHT22;3564;53.326;10.356;2024-03-22T13:10:46;14.60;99.90
7046;DHT22;3564;53.326;10.356;2024-03-22T13:13:11;14.60;99.90
7046;DHT22;3564;53.326;10.356;2024-03-22T13:15:38;14.60;99.90
7046;DHT22;3564;53.326;10.356;2024-03-22T13:18:04;14.60;99.90
7046;DHT22;3564;53.326;10.356;2024-03-22T13:20:30;14.50;99.90
7046;DHT22;3564;53.326;10.356;2024-03-22T13:22:56;14.50;99.90
7046;DHT22;3564;53.326;10.356;2024-03-22T13:25:22;14.50;99.90
7046;DHT22;3564;53.326;10.356;2024-03-22T13:27:47;14.50;99.90
7046;DHT22;3564;53.326;10.356;2024-03-22T13:30:14;14.40;99.90
7046;DHT22;3564;53.326;10.356;2024-03-22T13:32:40;14.40;99.90
7046;DHT22;3564;53.326;10.356;2024-03-22T13:35:06;14.30;99.90
7046;DHT22;3564;53.326;10.356;2024-03-22T13:37:32;14.30;99.90
7046;DHT22;3564;53.326;10.356;2024-03-22T13:39:58;14.30;99.90
7046;DHT22;3564;53.326;10.356;2024-03-22T13:42:25;14.30;99.90
7046;DHT22;3564;53.326;10.356;2024-03-22T13:44:51;14.30;99.90
7046;DHT22;3564;53.326;10.356;2024-03-22T13:47:16;14.30;99.90
7046;DHT22;3564;53.326;10.356;2024-03-22T13:49:43;14.30;99.90
7046;DHT22;3564;53.326;10.356;2024-03-22T13:52:13;14.20;99.90
7046;DHT22;3564;53.326;10.356;2024-03-22T13:54:38;14.30;99.90
7046;DHT22;3564;53.326;10.356;2024-03-22T13:57:05;14.30;99.90
7046;DHT22;3564;53.326;10.356;2024-03-22T13:59:31;14.30;99.90
7046;DHT22;3564;53.326;10.356;2024-03-22T14:01:56;14.30;99.90
7046;DHT22;3564;53.326;10.356;2024-03-22T14:04:23;14.40;99.90
7046;DHT22;3564;53.326;10.356;2024-03-22T14:06:49;14.40;99.90
7046;DHT22;3564;53.326;10.356;2024-03-22T14:09:14;14.40;99.90
7046;DHT22;3564;53.326;10.356;2024-03-22T14:11:41;14.40;99.90
7046;DHT22;3564;53.326;10.356;2024-03-22T14:14:12;14.40;99.90
7046;DHT22;3564;53.326;10.356;2024-03-22T14:16:39;14.40;99.90
7046;DHT22;3564;53.326;10.356;2024-03-22T14:19:04;14.40;99.90
7046;DHT22;3564;53.326;10.356;2024-03-22T14:21:30;14.40;99.90
7046;DHT22;3564;53.326;10.356;2024-03-22T14:23:56;14.40;99.90
7046;DHT22;3564;53.326;10.356;2024-03-22T14:26:22;14.50;99.90
7046;DHT22;3564;53.326;10.356;2024-03-22T14:28:49;14.50;99.90
7046;DHT22;3564;53.326;10.356;2024-03-22T14:31:16;14.50;99.90
7046;DHT22;3564;53.326;10.356;2024-03-22T14:33:42;14.50;99.90
7046;DHT22;3564;53.326;10.356;2024-03-22T14:36:09;14.50;99.90
7046;DHT22;3564;53.326;10.356;2024-03-22T14:38:37;14.50;99.90
7046;DHT22;3564;53.326;10.356;2024-03-22T14:41:02;14.50;99.90
7046;DHT22;3564;53.326;10.356;2024-03-22T14:43:29;14.50;99.90
7046;DHT22;3564;53.326;10.356;2024-03-22T14:45:57;14.50;99.90
7046;DHT22;3564;53.326;10.356;2024-03-22T14:48:23;14.50;99.90
7046;DHT22;3564;53.326;10.356;2024-03-22T14:50:50;14.50;99.90
7046;DHT22;3564;53.326;10.356;2024-03-22T14:53:16;14.60;99.90
7046;DHT22;3564;53.326;10.356;2024-03-22T14:56:00;14.60;99.90
7046;DHT22;3564;53.326;10.356;2024-03-22T14:58:33;14.60;99.90
7046;DHT22;3564;53.326;10.356;2024-03-22T15:01:04;14.60;99.90
7046;DHT22;3564;53.326;10.356;2024-03-22T15:03:31;14.60;99.90
7046;DHT22;3564;53.326;10.356;2024-03-22T15:05:58;14.60;99.90
7046;DHT22;3564;53.326;10.356;2024-03-22T15:08:31;14.60;99.90
7046;DHT22;3564;53.326;10.356;2024-03-22T15:10:58;14.60;99.90
7046;DHT22;3564;53.326;10.356;2024-03-22T15:13:23;14.50;99.90
7046;DHT22;3564;53.326;10.356;2024-03-22T15:15:57;14.50;99.90
7046;DHT22;3564;53.326;10.356;2024-03-22T15:18:23;14.50;99.90
7046;DHT22;3564;53.326;10.356;2024-03-22T15:20:49;14.50;99.90
7046;DHT22;3564;53.326;10.356;2024-03-22T15:23:15;14.50;99.90
7046;DHT22;3564;53.326;10.356;2024-03-22T15:25:42;14.60;99.90
7046;DHT22;3564;53.326;10.356;2024-03-22T15:28:10;14.50;99.90
7046;DHT22;3564;53.326;10.356;2024-03-22T15:30:40;14.50;99.90
7046;DHT22;3564;53.326;10.356;2024-03-22T15:33:07;14.50;99.90
7046;DHT22;3564;53.326;10.356;2024-03-22T15:35:34;14.40;99.90
7046;DHT22;3564;53.326;10.356;2024-03-22T15:38:00;14.40;99.90
7046;DHT22;3564;53.326;10.356;2024-03-22T15:40:30;14.30;99.90